PWSweather.com
Personal Weather Stations
Station Observations

AwhituWaiuku, CA 268400

Lat: -37.058, Lon: -174.6346

Elevation: 250

Station Type: Personal

http://www.weather-display.com/windy/gb/grahamsbeach.htm

High Low Average
Temperature 58.3°F14.6°C 53.4°F11.9°C 55.5°F13.1°C
Dew Point 57.5°F14.2°C 52.2°F11.2°C 54.2°F12.3°C
Winds 20.7 mph 33.3 kmh 2.3 mph 3.7 kmh 9.0 mph S14.5 kmh S
Wind Gusts 26.5 mph42.6 kmh 3.5 mph5.6 kmh 12.0 mph19.3 kmh
Humidity 97% 90% 95%
Pressure 30.18 in1022.0 mb 29.82 in1009.8 mb -
Precipitation 0.17 in4.3 mm - -
Hour Temp Dew Point Humidity Winds Wind Gusts Pressure Precip Precip Rate Daily Precip Total
12:00 AM 54.3°F12.4°C 53.5°F11.9°C 97% 5.8 mph NE9.3 kmh NE 8.1 mph13.0 kmh 30.18 in1022.0 mb - 0.00 in0.0 mm 0.00 in0.0 mm
12:30 AM 54.2°F12.3°C 53.4°F11.9°C 97% 4.6 mph N7.4 kmh N 4.6 mph7.4 kmh 30.18 in1022.0 mb - 0.00 in0.0 mm 0.00 in0.0 mm
01:00 AM 54.2°F12.3°C 53.4°F11.9°C 97% 3.5 mph E5.6 kmh E 6.9 mph11.1 kmh 30.17 in1021.7 mb - 0.00 in0.0 mm 0.00 in0.0 mm
01:30 AM 53.9°F12.2°C 53.1°F11.7°C 97% 5.8 mph E9.3 kmh E 9.2 mph14.8 kmh 30.16 in1021.3 mb - 0.00 in0.0 mm 0.00 in0.0 mm
02:00 AM 53.9°F12.2°C 53.1°F11.7°C 97% 8.1 mph E13.0 kmh E 10.4 mph16.7 kmh 30.15 in1021.0 mb - 0.00 in0.0 mm 0.00 in0.0 mm
02:30 AM 53.8°F12.1°C 53.0°F11.7°C 97% 8.1 mph E13.0 kmh E 10.4 mph16.7 kmh 30.14 in1020.7 mb - 0.00 in0.0 mm 0.00 in0.0 mm
03:00 AM 53.4°F11.9°C 52.5°F11.4°C 97% 8.1 mph E13.0 kmh E 10.4 mph16.7 kmh 30.12 in1020.0 mb - 0.00 in0.0 mm 0.00 in0.0 mm
03:30 AM 53.4°F11.9°C 52.6°F11.4°C 97% 6.9 mph E11.1 kmh E 11.5 mph18.5 kmh 30.11 in1019.6 mb - 0.00 in0.0 mm 0.00 in0.0 mm
04:00 AM 53.9°F12.2°C 53.0°F11.7°C 97% 5.8 mph E9.3 kmh E 6.9 mph11.1 kmh 30.10 in1019.3 mb - 0.00 in0.0 mm 0.00 in0.0 mm
04:30 AM 53.9°F12.2°C 53.1°F11.7°C 97% 6.9 mph NE11.1 kmh NE 12.7 mph20.4 kmh 30.09 in1019.0 mb - 0.00 in0.0 mm 0.00 in0.0 mm
05:00 AM 54.2°F12.3°C 53.4°F11.9°C 97% 5.8 mph NE9.3 kmh NE 11.5 mph18.5 kmh 30.08 in1018.6 mb - 0.00 in0.0 mm 0.00 in0.0 mm
05:30 AM 54.1°F12.3°C 53.3°F11.8°C 97% 3.5 mph E5.6 kmh E 5.8 mph9.3 kmh 30.07 in1018.3 mb - 0.00 in0.0 mm 0.00 in0.0 mm
06:00 AM 53.9°F12.2°C 53.0°F11.7°C 97% 3.5 mph E5.6 kmh E 5.8 mph9.3 kmh 30.08 in1018.6 mb - 0.00 in0.0 mm 0.00 in0.0 mm
06:30 AM 54.1°F12.3°C 53.3°F11.8°C 97% 6.9 mph E11.1 kmh E 11.5 mph18.5 kmh 30.08 in1018.6 mb - 0.00 in0.0 mm 0.00 in0.0 mm
07:00 AM 54.2°F12.3°C 53.4°F11.9°C 97% 6.9 mph ESE11.1 kmh ESE 10.4 mph16.7 kmh 30.08 in1018.6 mb - 0.00 in0.0 mm 0.00 in0.0 mm
07:30 AM 54.4°F12.4°C 53.6°F12.0°C 97% 5.8 mph E9.3 kmh E 11.5 mph18.5 kmh 30.08 in1018.6 mb - 0.00 in0.0 mm 0.00 in0.0 mm
08:00 AM 54.7°F12.6°C 53.6°F12.0°C 96% 4.6 mph E7.4 kmh E 12.7 mph20.4 kmh 30.08 in1018.6 mb - 0.00 in0.0 mm 0.00 in0.0 mm
08:30 AM 55.3°F12.9°C 54.2°F12.3°C 96% 6.9 mph E11.1 kmh E 6.9 mph11.1 kmh 30.07 in1018.3 mb - 0.00 in0.0 mm 0.00 in0.0 mm
09:00 AM 55.1°F12.8°C 54.0°F12.2°C 96% 10.4 mph E16.7 kmh E 12.7 mph20.4 kmh 30.07 in1018.3 mb - 0.00 in0.0 mm 0.00 in0.0 mm
09:30 AM 55.1°F12.8°C 54.0°F12.2°C 96% 9.2 mph E14.8 kmh E 11.5 mph18.5 kmh 30.06 in1017.9 mb - 0.01 in0.3 mm 0.01 in0.3 mm
10:00 AM 54.9°F12.7°C 54.1°F12.3°C 97% 9.2 mph E14.8 kmh E 11.5 mph18.5 kmh 30.05 in1017.6 mb - 0.01 in0.3 mm 0.02 in0.5 mm
10:30 AM 55.1°F12.8°C 54.3°F12.4°C 97% 8.1 mph E13.0 kmh E 9.2 mph14.8 kmh 30.05 in1017.6 mb - 0.02 in0.5 mm 0.03 in0.8 mm
11:00 AM 55.7°F13.2°C 54.9°F12.7°C 97% 4.6 mph E7.4 kmh E 8.1 mph13.0 kmh 30.04 in1017.3 mb - 0.02 in0.5 mm 0.05 in1.3 mm
11:30 AM 56.3°F13.5°C 55.5°F13.1°C 97% 5.8 mph E9.3 kmh E 9.2 mph14.8 kmh 30.02 in1016.6 mb - 0.02 in0.5 mm 0.07 in1.8 mm
12:00 PM 57.3°F14.1°C 56.5°F13.6°C 97% 4.6 mph ENE7.4 kmh ENE 9.2 mph14.8 kmh 30.00 in1015.9 mb - 0.02 in0.5 mm 0.10 in2.5 mm
12:30 PM 57.7°F14.3°C 56.9°F13.8°C 97% 2.3 mph NE3.7 kmh NE 8.1 mph13.0 kmh 29.98 in1015.2 mb - 0.02 in0.5 mm 0.12 in3.0 mm
01:00 PM 57.6°F14.2°C 56.8°F13.8°C 97% 2.3 mph NE3.7 kmh NE 9.2 mph14.8 kmh 29.95 in1014.2 mb - 0.01 in0.3 mm 0.12 in3.0 mm
01:30 PM 57.7°F14.3°C 56.9°F13.8°C 97% 2.3 mph NE3.7 kmh NE 3.5 mph5.6 kmh 29.93 in1013.5 mb - 0.02 in0.5 mm 0.14 in3.6 mm
02:00 PM 57.8°F14.3°C 57.0°F13.9°C 97% 2.3 mph NE3.7 kmh NE 4.6 mph7.4 kmh 29.91 in1012.9 mb - 0.02 in0.5 mm 0.16 in4.1 mm
02:30 PM 58.3°F14.6°C 57.5°F14.2°C 97% 11.5 mph W18.5 kmh W 17.3 mph27.8 kmh 29.91 in1012.9 mb - 0.02 in0.5 mm 0.17 in4.3 mm
03:00 PM 57.4°F14.1°C 56.6°F13.7°C 97% 17.3 mph WNW27.8 kmh WNW 20.7 mph33.3 kmh 29.91 in1012.9 mb - 0.00 in0.0 mm 0.17 in4.3 mm
03:30 PM 57.3°F14.1°C 56.2°F13.4°C 96% 19.6 mph WNW31.5 kmh WNW 26.5 mph42.6 kmh 29.88 in1011.9 mb - 0.00 in0.0 mm 0.17 in4.3 mm
04:00 PM 57.0°F13.9°C 55.6°F13.1°C 95% 12.7 mph WNW20.4 kmh WNW 15.0 mph24.1 kmh 29.88 in1011.9 mb - 0.00 in0.0 mm 0.17 in4.3 mm
04:30 PM 56.6°F13.7°C 54.9°F12.7°C 94% 17.3 mph WNW27.8 kmh WNW 20.7 mph33.3 kmh 29.87 in1011.5 mb - 0.00 in0.0 mm 0.17 in4.3 mm
05:00 PM 56.6°F13.7°C 54.6°F12.6°C 93% 19.6 mph WNW31.5 kmh WNW 24.2 mph38.9 kmh 29.88 in1011.9 mb - 0.00 in0.0 mm 0.17 in4.3 mm
05:30 PM 56.5°F13.6°C 54.5°F12.5°C 93% 20.7 mph WNW33.3 kmh WNW 25.3 mph40.7 kmh 29.87 in1011.5 mb - 0.00 in0.0 mm 0.17 in4.3 mm
06:00 PM 56.3°F13.5°C 54.3°F12.4°C 93% 13.8 mph W22.2 kmh W 15.0 mph24.1 kmh 29.88 in1011.9 mb - 0.00 in0.0 mm 0.17 in4.3 mm
06:30 PM 56.3°F13.5°C 54.0°F12.2°C 92% 17.3 mph W27.8 kmh W 24.2 mph38.9 kmh 29.88 in1011.9 mb - 0.00 in0.0 mm 0.17 in4.3 mm
07:00 PM 56.3°F13.5°C 54.0°F12.2°C 92% 12.7 mph W20.4 kmh W 15.0 mph24.1 kmh 29.88 in1011.9 mb - 0.00 in0.0 mm 0.17 in4.3 mm
07:30 PM 56.2°F13.4°C 54.2°F12.3°C 93% 13.8 mph W22.2 kmh W 18.4 mph29.6 kmh 29.87 in1011.5 mb - 0.00 in0.0 mm 0.17 in4.3 mm
08:00 PM 56.1°F13.4°C 54.1°F12.3°C 93% 15.0 mph WNW24.1 kmh WNW 18.4 mph29.6 kmh 29.87 in1011.5 mb - 0.00 in0.0 mm 0.17 in4.3 mm
08:30 PM 55.9°F13.3°C 53.9°F12.2°C 93% 9.2 mph NW14.8 kmh NW 11.5 mph18.5 kmh 29.86 in1011.2 mb - 0.00 in0.0 mm 0.17 in4.3 mm
09:00 PM 55.5°F13.1°C 53.2°F11.8°C 92% 4.6 mph NW7.4 kmh NW 8.1 mph13.0 kmh 29.86 in1011.2 mb - 0.00 in0.0 mm 0.17 in4.3 mm
09:30 PM 55.5°F13.1°C 52.9°F11.6°C 91% 4.6 mph NNW7.4 kmh NNW 8.1 mph13.0 kmh 29.85 in1010.8 mb - 0.00 in0.0 mm 0.17 in4.3 mm
10:00 PM 54.8°F12.7°C 52.2°F11.2°C 91% 8.1 mph N13.0 kmh N 9.2 mph14.8 kmh 29.85 in1010.8 mb - 0.00 in0.0 mm 0.17 in4.3 mm
10:30 PM 55.0°F12.8°C 52.4°F11.3°C 91% 6.9 mph NW11.1 kmh NW 13.8 mph22.2 kmh 29.85 in1010.8 mb - 0.00 in0.0 mm 0.17 in4.3 mm
11:00 PM 55.4°F13.0°C 52.8°F11.6°C 91% 6.9 mph NW11.1 kmh NW 11.5 mph18.5 kmh 29.83 in1010.2 mb - 0.00 in0.0 mm 0.17 in4.3 mm
11:30 PM 55.4°F13.0°C 52.5°F11.4°C 90% 9.2 mph NW14.8 kmh NW 12.7 mph20.4 kmh 29.82 in1009.8 mb - 0.00 in0.0 mm 0.17 in4.3 mm